Time;durP1;ratioP1;P1;durP2;ratioP2;P2;SDS_P1;SDS_P2;PMS_P1;PMS_P2;Temp;Humidity;BMP_temperature;BMP_pressure;BME280_temperature;BME280_humidity;BME280_pressure;Samples;Min_cycle;Max_cycle;Signal;HPM_P1;HPM_P2
2021/10/28 00:13:48;;;;;;;22.48;14.32;;;6.80;99.90;;;;;;5111030;28;20023;-70
2021/10/28 00:16:19;;;;;;;27.67;15.30;;;6.70;99.90;;;;;;5111609;28;20114;-70
2021/10/28 00:18:47;;;;;;;27.65;14.82;;;6.70;99.90;;;;;;5111609;28;20024;-71
2021/10/28 00:21:13;;;;;;;29.23;16.23;;;6.70;99.90;;;;;;5111579;28;20107;-71
2021/10/28 00:23:43;;;;;;;24.48;15.00;;;6.70;99.90;;;;;;5111244;28;20438;-71
2021/10/28 00:26:10;;;;;;;22.63;14.52;;;6.60;99.90;;;;;;5110925;28;20023;-71
2021/10/28 00:28:36;;;;;;;26.17;16.23;;;6.70;99.90;;;;;;5111437;28;20107;-71
2021/10/28 00:31:04;;;;;;;27.67;15.45;;;6.60;99.90;;;;;;5111370;28;20027;-70
2021/10/28 00:33:31;;;;;;;26.33;15.23;;;6.60;99.90;;;;;;5109920;28;20385;-69
2021/10/28 00:35:59;;;;;;;25.60;15.75;;;6.60;99.90;;;;;;5111229;28;20157;-71
2021/10/28 00:38:24;;;;;;;29.00;16.27;;;6.50;99.90;;;;;;5111000;28;20088;-70
2021/10/28 00:40:50;;;;;;;26.25;15.40;;;6.50;99.90;;;;;;5111212;28;20056;-70
2021/10/28 00:43:16;;;;;;;25.67;14.55;;;6.50;99.90;;;;;;5111197;28;20034;-70
2021/10/28 00:45:41;;;;;;;26.50;15.90;;;6.50;99.90;;;;;;5111128;28;20378;-70
2021/10/28 00:48:07;;;;;;;25.48;14.95;;;6.50;99.90;;;;;;5111074;28;20024;-71
2021/10/28 00:50:34;;;;;;;25.60;15.02;;;6.50;99.90;;;;;;5111028;28;20483;-70
2021/10/28 00:53:00;;;;;;;25.20;15.20;;;6.50;99.90;;;;;;5110730;28;20031;-71
2021/10/28 00:55:26;;;;;;;27.23;14.43;;;6.40;99.90;;;;;;5110104;28;20040;-70
2021/10/28 00:57:53;;;;;;;30.17;16.50;;;6.40;99.90;;;;;;5110877;28;20454;-70
2021/10/28 01:00:19;;;;;;;28.38;16.38;;;6.30;99.90;;;;;;5110587;28;20020;-70
2021/10/28 01:02:44;;;;;;;28.45;16.52;;;6.30;99.90;;;;;;5110523;28;20526;-70
2021/10/28 01:05:10;;;;;;;34.35;17.13;;;6.30;99.90;;;;;;5108988;28;20487;-70
2021/10/28 01:07:36;;;;;;;25.83;15.68;;;6.30;99.90;;;;;;5102220;28;20080;-70
2021/10/28 01:10:02;;;;;;;26.38;15.52;;;6.30;99.90;;;;;;5097100;28;20473;-70
2021/10/28 01:12:28;;;;;;;23.10;14.63;;;6.20;99.90;;;;;;5096720;28;20157;-70
2021/10/28 01:14:55;;;;;;;30.13;17.38;;;6.20;99.90;;;;;;5096629;28;20099;-70
2021/10/28 01:17:21;;;;;;;32.08;16.27;;;6.20;99.90;;;;;;5096657;28;20027;-70
2021/10/28 01:19:50;;;;;;;25.85;15.60;;;6.10;99.90;;;;;;5096607;28;20024;-70
2021/10/28 01:22:16;;;;;;;27.67;15.93;;;6.10;99.90;;;;;;5096849;28;20030;-70
2021/10/28 01:24:41;;;;;;;29.77;15.35;;;6.10;99.90;;;;;;5096821;28;20368;-70
2021/10/28 01:27:08;;;;;;;26.83;15.77;;;6.10;99.90;;;;;;5095314;28;20024;-70
2021/10/28 01:29:35;;;;;;;27.15;16.02;;;6.10;99.90;;;;;;5096697;28;20112;-70
2021/10/28 01:32:02;;;;;;;23.90;15.10;;;6.10;99.90;;;;;;5095659;28;20537;-70
2021/10/28 01:34:27;;;;;;;34.78;17.92;;;6.00;99.90;;;;;;5096592;28;20089;-70
2021/10/28 01:36:55;;;;;;;31.27;18.90;;;6.00;99.90;;;;;;5096468;28;20457;-70
2021/10/28 01:39:22;;;;;;;29.88;17.55;;;6.00;99.90;;;;;;5096229;28;20020;-70
2021/10/28 01:41:48;;;;;;;28.85;16.15;;;6.00;99.90;;;;;;5095298;28;20012;-70
2021/10/28 01:44:13;;;;;;;28.23;15.60;;;6.00;99.90;;;;;;5096410;28;20032;-70
2021/10/28 01:46:39;;;;;;;26.35;15.38;;;5.90;99.90;;;;;;5096362;28;20053;-69
2021/10/28 01:49:04;;;;;;;34.35;16.80;;;5.90;99.90;;;;;;5094844;28;20389;-70
2021/10/28 01:51:30;;;;;;;35.83;17.20;;;5.90;99.90;;;;;;5096278;28;20145;-70
2021/10/28 01:53:55;;;;;;;32.15;16.35;;;5.90;99.90;;;;;;5095916;28;20381;-70
2021/10/28 01:56:21;;;;;;;25.65;15.45;;;5.90;99.90;;;;;;5095554;28;20055;-70
2021/10/28 01:58:51;;;;;;;27.10;16.50;;;5.90;99.90;;;;;;5095880;28;20024;-70
2021/10/28 02:01:17;;;;;;;27.02;15.80;;;5.80;99.90;;;;;;5096081;28;20024;-70
2021/10/28 02:03:42;;;;;;;31.83;16.95;;;5.80;99.90;;;;;;5096023;28;20453;-70
2021/10/28 02:06:08;;;;;;;37.13;19.27;;;5.80;99.90;;;;;;5094254;28;20028;-70
2021/10/28 02:08:34;;;;;;;36.90;18.15;;;5.90;99.90;;;;;;5094242;28;20028;-70
2021/10/28 02:10:59;;;;;;;36.00;18.50;;;5.90;99.90;;;;;;5095907;28;20450;-70
2021/10/28 02:13:25;;;;;;;32.00;16.60;;;5.80;99.90;;;;;;5094374;28;20035;-70
2021/10/28 02:15:50;;;;;;;33.45;17.10;;;5.80;99.90;;;;;;5095733;28;20028;-70
2021/10/28 02:18:16;;;;;;;32.17;17.52;;;5.80;99.90;;;;;;5095228;28;20428;-70
2021/10/28 02:20:42;;;;;;;33.47;17.55;;;5.80;99.90;;;;;;5093504;28;20024;-70
2021/10/28 02:23:09;;;;;;;34.55;18.70;;;5.70;99.90;;;;;;5095632;28;20529;-70
2021/10/28 02:25:36;;;;;;;39.13;19.50;;;5.70;99.90;;;;;;5095082;28;20385;-70
2021/10/28 02:28:01;;;;;;;31.77;18.27;;;5.70;99.90;;;;;;5095558;28;20024;-70
2021/10/28 02:30:28;;;;;;;36.17;18.67;;;5.70;99.90;;;;;;5095498;28;20085;-70
2021/10/28 02:32:53;;;;;;;29.40;18.02;;;5.60;99.90;;;;;;5095438;28;20101;-70
2021/10/28 02:35:19;;;;;;;32.20;17.48;;;5.60;99.90;;;;;;5095086;28;20075;-70
2021/10/28 02:37:46;;;;;;;30.70;15.82;;;5.60;99.90;;;;;;5095376;28;20082;-70
2021/10/28 02:40:12;;;;;;;35.72;17.40;;;5.50;99.90;;;;;;5095047;28;20024;-70
2021/10/28 02:42:39;;;;;;;30.50;17.00;;;5.50;99.90;;;;;;5095316;28;20020;-70
2021/10/28 02:45:06;;;;;;;34.65;17.45;;;5.50;99.90;;;;;;5094952;28;20527;-70
2021/10/28 02:47:32;;;;;;;32.53;17.77;;;5.50;99.90;;;;;;5094648;28;20056;-71
2021/10/28 02:49:58;;;;;;;29.92;17.05;;;5.50;99.90;;;;;;5093646;28;20054;-71
2021/10/28 02:52:24;;;;;;;29.13;16.52;;;5.40;99.90;;;;;;5095084;28;20024;-70
2021/10/28 02:54:52;;;;;;;27.73;16.58;;;5.40;99.90;;;;;;5092895;28;20077;-70
2021/10/28 02:57:18;;;;;;;32.28;16.60;;;5.40;99.90;;;;;;5094413;28;20493;-70
2021/10/28 02:59:43;;;;;;;28.45;16.05;;;5.30;99.90;;;;;;5094414;28;20039;-71
2021/10/28 03:02:09;;;;;;;28.98;15.10;;;5.40;99.90;;;;;;5093782;28;20091;-70
2021/10/28 03:04:34;;;;;;;27.35;16.45;;;5.40;99.90;;;;;;5094863;28;20457;-70
2021/10/28 03:07:00;;;;;;;25.58;15.13;;;5.30;99.90;;;;;;5094851;28;20044;-70
2021/10/28 03:09:28;;;;;;;31.10;17.05;;;5.40;99.90;;;;;;5094789;28;20027;-70
2021/10/28 03:11:57;;;;;;;27.65;16.13;;;5.40;99.90;;;;;;5094466;28;20032;-70
2021/10/28 03:14:31;;;;;;;28.92;16.30;;;5.40;99.90;;;;;;5093684;28;20024;-68
2021/10/28 03:17:03;;;;;;;35.55;19.50;;;5.40;99.90;;;;;;5094307;28;20020;-68
2021/10/28 03:25:35;;;;;;;29.58;17.02;;;5.50;99.90;;;;;;5112219;27;20424;-70
2021/10/28 03:25:35;;;;;;;37.92;20.17;;;5.40;99.90;;;;;;5110199;28;20028;-70
2021/10/28 03:27:57;;;;;;;36.38;18.83;;;5.40;99.90;;;;;;5111218;28;20559;-70
2021/10/28 03:30:23;;;;;;;28.35;16.48;;;5.40;99.90;;;;;;5110834;28;20484;-70
2021/10/28 03:32:49;;;;;;;25.95;15.73;;;5.30;99.90;;;;;;5111563;28;20508;-70
2021/10/28 03:35:15;;;;;;;26.27;16.45;;;5.20;99.90;;;;;;5111770;28;20104;-70
2021/10/28 03:37:48;;;;;;;29.98;17.27;;;5.20;99.90;;;;;;5111739;28;20558;-69
2021/10/28 03:40:29;;;;;;;;;;;5.20;99.90;;;;;;5110636;28;20358;-70
2021/10/28 03:57:10;;;;;;;26.88;15.68;;;5.10;99.90;;;;;;5110674;28;20384;-70
2021/10/28 04:03:20;;;;;;;28.73;16.55;;;5.10;99.90;;;;;;5110469;28;20055;-70
2021/10/28 04:08:11;;;;;;;29.95;16.75;;;5.00;99.90;;;;;;5110447;28;20035;-70
2021/10/28 04:19:03;;;;;;;26.20;15.82;;;5.00;99.90;;;;;;5110250;28;20103;-70
2021/10/28 04:21:39;;;;;;;37.80;18.42;;;5.00;99.90;;;;;;5110191;28;20374;-70
2021/10/28 04:29:35;;;;;;;31.48;17.75;;;5.00;99.90;;;;;;5110010;28;20020;-70
2021/10/28 04:32:03;;;;;;;35.10;18.20;;;5.00;99.90;;;;;;5105360;28;20032;-70
2021/10/28 04:34:28;;;;;;;35.30;17.67;;;5.00;99.90;;;;;;5097054;28;20169;-70
2021/10/28 04:36:54;;;;;;;31.02;17.27;;;5.00;99.90;;;;;;5096705;28;20481;-70
2021/10/28 04:39:20;;;;;;;34.95;17.52;;;5.00;99.90;;;;;;5097015;28;20020;-70
2021/10/28 04:41:46;;;;;;;34.53;18.00;;;5.00;99.90;;;;;;5095375;28;20039;-70
2021/10/28 04:44:12;;;;;;;31.00;17.85;;;4.90;99.90;;;;;;5096891;28;20043;-70
2021/10/28 04:46:39;;;;;;;33.13;17.75;;;5.00;99.90;;;;;;5096846;28;20016;-70
2021/10/28 04:49:05;;;;;;;36.45;18.50;;;5.00;99.90;;;;;;5096467;28;20369;-70
2021/10/28 04:51:31;;;;;;;42.47;21.60;;;5.00;99.90;;;;;;5096455;28;20124;-70
2021/10/28 04:53:57;;;;;;;41.80;20.52;;;5.20;99.90;;;;;;5096376;28;20488;-70
2021/10/28 04:56:23;;;;;;;45.17;21.73;;;5.30;99.90;;;;;;5095040;28;20032;-70
2021/10/28 04:58:48;;;;;;;37.17;19.60;;;5.40;99.90;;;;;;5096528;28;20028;-70
2021/10/28 05:01:14;;;;;;;34.67;19.77;;;5.40;99.90;;;;;;5078365;28;20028;-71
2021/10/28 05:03:40;;;;;;;35.65;17.45;;;5.40;99.90;;;;;;5096164;28;20049;-70
2021/10/28 05:06:05;;;;;;;39.42;19.20;;;5.30;99.90;;;;;;5094973;28;20035;-70
2021/10/28 05:08:34;;;;;;;38.30;18.50;;;5.30;99.90;;;;;;5096645;28;20028;-71
2021/10/28 05:11:01;;;;;;;43.55;20.80;;;5.20;99.90;;;;;;5096651;28;20367;-70
2021/10/28 05:13:26;;;;;;;48.47;22.10;;;5.30;99.90;;;;;;5094863;28;20153;-70
2021/10/28 05:15:54;;;;;;;41.45;19.35;;;5.50;99.90;;;;;;5096257;28;20468;-70
2021/10/28 05:18:23;;;;;;;46.72;21.08;;;5.40;99.90;;;;;;5095904;28;20040;-70
2021/10/28 05:20:49;;;;;;;48.28;22.60;;;5.50;99.90;;;;;;5095715;28;20075;-70
2021/10/28 05:23:14;;;;;;;56.78;24.48;;;5.60;99.90;;;;;;5096102;28;20051;-70
2021/10/28 05:25:40;;;;;;;58.90;26.50;;;5.90;99.90;;;;;;5095962;28;20031;-70
2021/10/28 05:28:06;;;;;;;65.50;28.20;;;6.00;99.90;;;;;;5096025;28;20103;-70
2021/10/28 05:30:32;;;;;;;65.72;28.63;;;6.20;99.90;;;;;;5095879;28;20028;-70
2021/10/28 05:32:58;;;;;;;72.88;30.25;;;6.30;99.90;;;;;;5077314;28;20053;-70
2021/10/28 05:35:24;;;;;;;77.07;29.85;;;6.40;99.90;;;;;;5094198;28;20028;-70
2021/10/28 05:37:50;;;;;;;72.72;30.33;;;6.40;99.90;;;;;;5095401;28;20099;-70
2021/10/28 05:40:16;;;;;;;66.80;28.98;;;6.30;99.90;;;;;;5093752;28;20070;-70
2021/10/28 05:42:44;;;;;;;69.63;28.30;;;6.30;99.90;;;;;;5095622;28;20029;-70
2021/10/28 05:45:10;;;;;;;70.25;28.20;;;6.20;99.90;;;;;;5094480;28;20081;-70
2021/10/28 05:47:37;;;;;;;60.53;26.85;;;6.10;99.90;;;;;;5076874;28;20020;-70
2021/10/28 05:50:03;;;;;;;63.97;28.10;;;6.00;99.90;;;;;;5095285;28;20016;-70
2021/10/28 05:52:29;;;;;;;61.47;27.58;;;6.10;99.90;;;;;;5095478;28;20374;-70
2021/10/28 05:54:54;;;;;;;58.85;26.48;;;6.10;99.90;;;;;;5095298;28;20025;-70
2021/10/28 05:57:20;;;;;;;69.38;28.00;;;6.00;99.90;;;;;;5094904;28;20028;-70
2021/10/28 05:59:45;;;;;;;60.38;26.85;;;6.10;99.90;;;;;;5095181;28;20024;-70
2021/10/28 06:02:11;;;;;;;56.78;25.83;;;6.20;99.90;;;;;;5095065;28;20109;-70
2021/10/28 06:04:36;;;;;;;65.72;26.75;;;6.10;99.90;;;;;;5095114;28;20351;-70
2021/10/28 06:07:02;;;;;;;68.45;29.15;;;6.20;99.90;;;;;;5095128;28;20024;-70
2021/10/28 06:09:28;;;;;;;72.25;30.33;;;6.20;99.90;;;;;;5095013;28;20020;-70
2021/10/28 06:11:56;;;;;;;73.18;28.92;;;6.30;99.90;;;;;;5093590;28;20028;-70
2021/10/28 06:14:24;;;;;;;77.45;31.08;;;6.30;99.90;;;;;;5094943;28;20368;-70
2021/10/28 06:16:54;;;;;;;68.38;28.75;;;6.30;99.90;;;;;;5094881;28;20020;-70
2021/10/28 06:19:19;;;;;;;72.07;29.83;;;6.30;99.90;;;;;;5094785;28;20024;-70
2021/10/28 06:21:45;;;;;;;76.38;32.55;;;6.30;99.90;;;;;;5094126;28;20047;-70
2021/10/28 06:24:10;;;;;;;76.50;33.33;;;6.30;99.90;;;;;;5094719;28;20377;-70
2021/10/28 06:26:36;;;;;;;80.50;34.00;;;6.30;99.90;;;;;;5094368;28;20025;-70
2021/10/28 06:29:01;;;;;;;84.88;36.05;;;6.30;99.90;;;;;;5093467;28;20458;-70
2021/10/28 06:31:27;;;;;;;77.60;34.10;;;6.40;99.90;;;;;;5094462;28;20023;-70
2021/10/28 06:34:00;;;;;;;77.82;34.22;;;6.40;99.90;;;;;;5092946;28;20104;-70
2021/10/28 06:36:26;;;;;;;83.65;36.45;;;6.50;99.90;;;;;;5094529;28;20485;-70
2021/10/28 06:38:57;;;;;;;85.57;35.90;;;6.60;99.90;;;;;;5076698;28;20414;-69
2021/10/28 06:41:23;;;;;;;86.28;38.35;;;7.00;99.90;;;;;;5094399;28;20054;-71
2021/10/28 06:43:49;;;;;;;81.95;36.75;;;7.20;99.90;;;;;;5094447;28;20024;-70
2021/10/28 06:46:14;;;;;;;88.00;39.22;;;7.50;99.90;;;;;;5092741;28;20028;-70
2021/10/28 06:48:40;;;;;;;86.20;38.10;;;7.80;99.90;;;;;;5093995;28;20070;-70
2021/10/28 06:51:06;;;;;;;79.20;37.92;;;8.40;99.90;;;;;;5094108;28;20030;-70
2021/10/28 06:53:35;;;;;;;62.83;35.47;;;8.90;99.90;;;;;;5092643;28;20027;-70
2021/10/28 06:56:07;;;;;;;48.88;25.33;;;9.30;99.90;;;;;;5093579;28;20107;-71
2021/10/28 07:04:04;;;;;;;29.75;17.70;;;10.00;99.90;;;;;;5093417;28;20416;-72
2021/10/28 07:06:32;;;;;;;25.27;14.55;;;10.20;99.90;;;;;;5094098;28;20016;-71
2021/10/28 07:09:04;;;;;;;24.17;13.88;;;10.20;99.90;;;;;;5092204;28;20020;-72
2021/10/28 07:11:34;;;;;;;19.70;12.45;;;10.30;99.90;;;;;;5078184;28;20021;-72
2021/10/28 07:14:04;;;;;;;18.38;12.48;;;10.30;99.90;;;;;;5091819;28;20028;-72
2021/10/28 07:16:38;;;;;;;23.52;11.65;;;10.80;99.90;;;;;;5093769;28;20027;-72
2021/10/28 07:19:15;;;;;;;19.00;10.27;;;11.90;99.90;;;;;;5093417;28;20024;-72
2021/10/28 07:22:15;;;;;;;16.75;10.77;;;12.80;99.90;;;;;;5076824;28;20033;-72
2021/10/28 07:24:45;;;;;;;19.10;9.55;;;13.90;99.90;;;;;;5071850;28;20025;-72
2021/10/28 07:27:34;;;;;;;20.10;9.70;;;14.60;99.90;;;;;;5073520;28;20107;-72
2021/10/28 07:30:16;;;;;;;14.27;8.75;;;15.40;99.90;;;;;;5082142;28;20020;-72
2021/10/28 07:35:36;;;;;;;19.73;9.73;;;16.50;99.90;;;;;;5073177;28;20355;-71
2021/10/28 07:38:25;;;;;;;16.58;9.88;;;17.20;99.90;;;;;;5073257;28;20450;-70
2021/10/28 08:00:33;;;;;;;14.23;8.35;;;18.50;99.90;;;;;;5081308;28;20542;-71
2021/10/28 08:05:59;;;;;;;11.38;7.88;;;18.40;99.90;;;;;;5072621;28;20017;-72
2021/10/28 08:14:18;;;;;;;10.65;7.38;;;18.90;99.90;;;;;;5076288;28;20396;-72
2021/10/28 08:17:04;;;;;;;9.85;7.85;;;19.10;99.90;;;;;;5076360;28;20056;-71
2021/10/28 08:19:41;;;;;;;10.00;7.30;;;19.10;99.90;;;;;;5086342;28;20081;-72
2021/10/28 08:22:13;;;;;;;8.65;7.22;;;19.30;99.90;;;;;;5095395;28;20404;-72
2021/10/28 08:30:11;;;;;;;11.00;6.32;;;19.70;99.90;;;;;;5077800;28;20486;-72
2021/10/28 08:32:38;;;;;;;9.07;6.55;;;19.90;99.90;;;;;;5076501;28;20518;-72
2021/10/28 08:35:05;;;;;;;9.50;6.68;;;19.70;99.90;;;;;;5088747;28;20448;-71
2021/10/28 08:37:43;;;;;;;8.07;5.80;;;20.30;99.90;;;;;;5102771;28;20376;-72
2021/10/28 08:40:10;;;;;;;8.70;6.97;;;19.80;99.90;;;;;;5099864;28;20016;-72
2021/10/28 08:42:38;;;;;;;7.63;6.75;;;19.40;99.90;;;;;;5099243;28;20549;-72
2021/10/28 08:45:04;;;;;;;8.30;6.30;;;19.40;99.90;;;;;;5096134;28;20033;-72
2021/10/28 08:47:30;;;;;;;11.43;6.47;;;19.80;99.90;;;;;;5095569;28;20095;-72
2021/10/28 08:50:03;;;;;;;10.15;6.20;;;19.60;99.90;;;;;;5096358;28;20058;-72
2021/10/28 08:52:44;;;;;;;7.38;6.57;;;20.30;99.90;;;;;;5095477;28;20063;-72
2021/10/28 08:55:19;;;;;;;7.15;6.22;;;19.80;99.90;;;;;;5075998;28;20470;-70
2021/10/28 09:26:44;;;;;;;8.20;5.63;;;21.60;99.90;;;;;;5091422;28;20036;-69
2021/10/28 09:29:20;;;;;;;6.82;6.10;;;21.60;99.90;;;;;;5090152;28;20074;-70
2021/10/28 09:31:56;;;;;;;7.53;6.00;;;21.00;99.90;;;;;;5090830;28;20115;-70
2021/10/28 09:34:39;;;;;;;8.05;6.15;;;21.80;99.90;;;;;;5090523;28;20411;-70
2021/10/28 09:45:55;;;;;;;6.47;5.75;;;21.60;99.90;;;;;;5110127;28;20550;-70
2021/10/28 09:48:33;;;;;;;8.13;5.55;;;21.40;99.90;;;;;;5092887;28;20051;-70
2021/10/28 09:51:02;;;;;;;8.90;5.47;;;21.90;99.90;;;;;;5090669;28;20031;-70
2021/10/28 09:53:31;;;;;;;6.75;5.85;;;21.60;99.90;;;;;;5090569;28;20095;-70
2021/10/28 09:58:44;;;;;;;6.40;5.80;;;21.00;99.90;;;;;;5089870;28;20108;-70
2021/10/28 10:01:31;;;;;;;9.32;6.15;;;21.00;99.90;;;;;;5089949;28;20058;-70
2021/10/28 10:04:00;;;;;;;8.95;6.00;;;21.30;99.90;;;;;;5108268;28;20044;-70
2021/10/28 10:06:27;;;;;;;8.90;6.10;;;21.10;99.90;;;;;;5110421;28;20016;-70
2021/10/28 10:08:54;;;;;;;7.38;5.38;;;21.70;99.90;;;;;;5108437;28;20027;-70
2021/10/28 10:11:24;;;;;;;7.57;5.53;;;22.10;99.90;;;;;;5110299;28;20030;-70
2021/10/28 10:13:50;;;;;;;8.13;5.40;;;21.70;99.90;;;;;;5108334;28;20023;-70
2021/10/28 10:16:15;;;;;;;10.05;5.60;;;21.30;99.90;;;;;;5102146;28;20024;-70
2021/10/28 10:18:48;;;;;;;7.72;5.30;;;21.30;99.90;;;;;;5096639;28;20046;-70
2021/10/28 10:21:38;;;;;;;8.57;5.50;;;21.00;99.90;;;;;;5096779;28;20020;-70
2021/10/28 10:24:16;;;;;;;7.97;5.80;;;21.20;99.90;;;;;;5088257;28;20039;-69
2021/10/28 10:28:19;;;;;;;5.95;4.72;;;20.90;99.90;;;;;;5058741;28;20424;-69
2021/10/28 11:28:26;;;;;;;7.03;3.67;;;19.60;99.90;;;;;;5090761;28;20439;-72
2021/10/28 11:31:16;;;;;;;4.13;2.63;;;19.20;99.90;;;;;;5090370;28;20032;-71
2021/10/28 12:16:16;;;;;;;4.35;2.58;;;19.30;99.70;;;;;;5089761;28;20027;-71
2021/10/28 12:21:48;;;;;;;4.32;2.33;;;19.00;99.70;;;;;;5088213;28;20466;-71
2021/10/28 12:24:31;;;;;;;4.63;2.70;;;19.20;99.90;;;;;;5071132;28;20033;-71
2021/10/28 12:44:29;;;;;;;4.18;1.83;;;19.00;99.90;;;;;;5054244;28;20514;-72
2021/10/28 12:50:26;;;;;;;3.50;2.25;;;19.10;99.90;;;;;;5073254;28;20491;-72
2021/10/28 13:04:17;;;;;;;3.20;2.03;;;19.10;99.90;;;;;;5100777;28;20032;-70
2021/10/28 13:48:24;;;;;;;4.50;2.50;;;18.30;99.90;;;;;;5088368;28;20025;-69
2021/10/28 13:50:36;;;;;;;4.43;2.70;;;18.30;99.90;;;;;;5108330;28;20119;-69
2021/10/28 13:53:30;;;;;;;3.38;2.78;;;18.10;99.90;;;;;;5107030;28;20099;-69
2021/10/28 13:56:30;;;;;;;4.20;2.85;;;18.20;99.90;;;;;;5089380;28;20025;-69
2021/10/28 13:58:54;;;;;;;5.85;3.00;;;18.20;99.90;;;;;;5088931;28;20063;-69
2021/10/28 14:15:46;;;;;;;3.47;2.50;;;18.10;99.90;;;;;;5082613;28;20032;-69
2021/10/28 14:21:07;;;;;;;4.22;3.15;;;17.90;99.90;;;;;;5078486;28;20029;-68
2021/10/28 14:23:38;;;;;;;5.03;2.75;;;18.00;99.90;;;;;;5084561;28;20561;-69
2021/10/28 14:27:15;;;;;;;5.50;3.15;;;18.00;99.90;;;;;;5071871;28;20039;-68
2021/10/28 14:29:25;;;;;;;6.85;2.97;;;17.90;99.90;;;;;;5085173;28;20382;-69
2021/10/28 14:32:02;;;;;;;5.13;3.25;;;17.90;99.90;;;;;;5075714;28;20028;-69
2021/10/28 15:02:48;;;;;;;5.65;3.30;;;17.40;99.90;;;;;;5075489;28;20023;-69
2021/10/28 15:29:35;;;;;;;8.02;3.70;;;16.70;99.90;;;;;;5069258;28;20060;-69
2021/10/28 15:37:43;;;;;;;7.30;4.07;;;16.50;99.90;;;;;;5070158;28;20021;-68
2021/10/28 15:40:18;;;;;;;6.57;4.35;;;16.30;99.90;;;;;;5070761;28;20064;-68
2021/10/28 15:54:12;;;;;;;7.03;5.13;;;15.70;99.90;;;;;;5069792;28;20025;-68
2021/10/28 15:56:42;;;;;;;12.73;5.95;;;15.60;99.90;;;;;;5070053;28;20104;-69
2021/10/28 16:23:57;;;;;;;8.15;6.28;;;14.30;99.90;;;;;;5056106;28;20018;-67
2021/10/28 16:26:23;;;;;;;10.38;6.40;;;14.30;99.90;;;;;;5055864;28;20021;-67
2021/10/28 16:28:48;;;;;;;10.15;6.13;;;14.10;99.90;;;;;;5056458;28;20052;-67
2021/10/28 16:31:15;;;;;;;10.93;6.72;;;14.00;99.90;;;;;;5056459;28;20090;-68
2021/10/28 16:33:41;;;;;;;8.80;6.43;;;14.00;99.90;;;;;;5056203;28;20020;-69
2021/10/28 16:36:07;;;;;;;8.98;6.88;;;13.90;99.90;;;;;;5056441;28;20029;-69
2021/10/28 16:38:33;;;;;;;10.23;6.43;;;13.80;99.90;;;;;;5056391;28;20096;-69
2021/10/28 16:40:59;;;;;;;13.65;7.68;;;13.70;99.90;;;;;;5056037;28;20071;-69
2021/10/28 16:43:24;;;;;;;9.68;6.70;;;13.60;99.90;;;;;;5055892;28;20067;-69
2021/10/28 16:45:50;;;;;;;11.93;7.22;;;13.60;99.90;;;;;;5056183;28;20077;-69
2021/10/28 16:48:16;;;;;;;9.95;7.05;;;13.50;99.90;;;;;;5056218;28;20390;-69
2021/10/28 16:50:42;;;;;;;8.93;7.03;;;13.30;99.90;;;;;;5056104;28;20053;-69
2021/10/28 16:53:08;;;;;;;10.13;7.25;;;13.10;99.90;;;;;;5056079;28;20025;-69
2021/10/28 16:55:35;;;;;;;12.23;8.02;;;13.00;99.90;;;;;;5055786;28;20036;-69
2021/10/28 16:58:00;;;;;;;9.88;7.60;;;12.90;99.90;;;;;;5055696;28;20031;-69
2021/10/28 17:00:26;;;;;;;13.48;8.50;;;12.90;99.90;;;;;;5056047;28;20021;-69
2021/10/28 17:02:52;;;;;;;12.10;7.90;;;12.90;99.90;;;;;;5055956;28;20032;-69
2021/10/28 17:05:18;;;;;;;14.43;9.00;;;12.80;99.90;;;;;;5055561;28;20028;-69
2021/10/28 17:07:43;;;;;;;13.63;8.23;;;12.90;99.90;;;;;;5055546;28;20052;-69
2021/10/28 17:10:10;;;;;;;13.63;9.38;;;12.90;99.90;;;;;;5054105;28;20055;-69
2021/10/28 17:12:36;;;;;;;15.02;9.48;;;12.90;99.90;;;;;;5054630;28;20032;-69
2021/10/28 17:15:04;;;;;;;16.33;9.38;;;12.90;99.90;;;;;;5055719;28;20031;-69
2021/10/28 17:17:29;;;;;;;15.00;10.15;;;12.80;99.90;;;;;;5055449;28;20029;-69
2021/10/28 17:19:59;;;;;;;14.07;10.57;;;12.80;99.90;;;;;;5055389;28;20104;-69
2021/10/28 17:22:25;;;;;;;17.00;10.80;;;12.80;99.90;;;;;;5055616;28;20017;-69
2021/10/28 17:24:50;;;;;;;16.20;10.85;;;12.70;99.90;;;;;;5054418;28;20025;-69
2021/10/28 17:27:18;;;;;;;16.95;11.13;;;12.80;99.90;;;;;;5055180;28;20057;-69
2021/10/28 17:29:43;;;;;;;16.08;11.75;;;12.70;99.90;;;;;;5052762;28;20386;-69
2021/10/28 17:32:10;;;;;;;15.73;12.07;;;12.70;99.90;;;;;;5055397;28;20032;-69
2021/10/28 17:34:36;;;;;;;15.43;11.43;;;12.60;99.90;;;;;;5055306;28;20025;-69
2021/10/28 17:37:04;;;;;;;18.17;12.73;;;12.50;99.90;;;;;;5054753;28;20032;-70
2021/10/28 17:39:30;;;;;;;21.48;13.05;;;12.40;99.90;;;;;;5055263;28;20021;-69
2021/10/28 17:41:58;;;;;;;20.08;13.75;;;12.40;99.90;;;;;;5054950;28;20044;-70
2021/10/28 17:44:34;;;;;;;20.20;12.93;;;12.40;99.90;;;;;;5055208;28;20028;-70
2021/10/28 17:47:00;;;;;;;20.02;13.95;;;12.40;99.90;;;;;;5054473;28;20036;-69
2021/10/28 17:49:25;;;;;;;23.50;15.00;;;12.30;99.90;;;;;;5054786;28;20374;-69
2021/10/28 17:51:51;;;;;;;22.60;14.05;;;12.20;99.90;;;;;;5055068;28;20429;-69
2021/10/28 17:54:16;;;;;;;21.38;14.82;;;12.10;99.90;;;;;;5053224;28;20449;-68
2021/10/28 17:56:42;;;;;;;23.45;15.45;;;12.10;99.90;;;;;;5054381;28;20033;-69
2021/10/28 17:59:08;;;;;;;22.63;14.85;;;12.00;99.90;;;;;;5054914;28;20028;-69
2021/10/28 18:01:35;;;;;;;22.55;15.98;;;11.90;99.90;;;;;;5053687;28;20053;-69
2021/10/28 18:04:02;;;;;;;21.75;16.65;;;11.90;99.90;;;;;;5054531;28;20043;-69
2021/10/28 18:06:29;;;;;;;28.13;16.00;;;11.80;99.90;;;;;;5054049;28;20131;-69
2021/10/28 18:08:56;;;;;;;25.48;17.73;;;11.70;99.90;;;;;;5052878;28;20033;-69
2021/10/28 18:11:23;;;;;;;26.35;17.95;;;11.70;99.90;;;;;;5054421;28;20013;-69
2021/10/28 18:13:53;;;;;;;24.95;17.70;;;11.60;99.90;;;;;;5053363;28;20415;-69
2021/10/28 18:16:20;;;;;;;26.17;17.95;;;11.60;99.90;;;;;;5054278;28;20112;-69
2021/10/28 18:18:45;;;;;;;28.42;18.70;;;11.60;99.90;;;;;;5054517;28;20029;-69
2021/10/28 18:21:11;;;;;;;29.95;19.38;;;11.50;99.90;;;;;;5054483;28;20028;-68
2021/10/28 18:23:43;;;;;;;26.60;18.83;;;11.40;99.90;;;;;;5053328;28;20021;-68
2021/10/28 18:26:09;;;;;;;30.92;20.10;;;11.40;99.90;;;;;;5054576;28;20039;-69
2021/10/28 18:28:34;;;;;;;31.00;20.83;;;11.40;99.90;;;;;;5054117;28;20021;-68
2021/10/28 18:31:00;;;;;;;34.95;21.33;;;11.30;99.90;;;;;;5054313;28;20028;-69
2021/10/28 18:33:26;;;;;;;31.35;21.13;;;11.30;99.90;;;;;;5052472;28;20063;-69
2021/10/28 18:35:52;;;;;;;29.33;20.63;;;11.30;99.90;;;;;;5054248;28;20029;-69
2021/10/28 18:38:17;;;;;;;33.58;21.33;;;11.20;99.90;;;;;;5054227;28;20485;-68
2021/10/28 18:40:43;;;;;;;30.35;20.85;;;11.10;99.90;;;;;;5053973;28;20029;-68
2021/10/28 18:43:09;;;;;;;28.50;20.70;;;11.00;99.90;;;;;;5053913;28;20028;-68
2021/10/28 18:45:34;;;;;;;31.10;20.55;;;10.90;99.90;;;;;;5054016;28;20033;-70
2021/10/28 18:48:00;;;;;;;33.22;21.40;;;10.90;99.90;;;;;;5054078;28;20028;-69
2021/10/28 18:50:26;;;;;;;33.00;21.73;;;10.80;99.90;;;;;;5053791;28;20027;-69
2021/10/28 18:52:52;;;;;;;36.90;22.77;;;10.80;99.90;;;;;;5054074;28;20441;-69
2021/10/28 18:55:17;;;;;;;34.10;22.75;;;10.70;99.90;;;;;;5053719;28;20079;-69
2021/10/28 18:57:43;;;;;;;33.03;22.33;;;10.70;99.90;;;;;;5053979;28;20022;-69
2021/10/28 19:00:10;;;;;;;36.45;23.10;;;10.60;99.90;;;;;;5053960;28;20033;-69
2021/10/28 19:02:37;;;;;;;37.88;23.42;;;10.50;99.90;;;;;;5053918;28;20024;-66
2021/10/28 19:05:04;;;;;;;36.42;23.35;;;10.40;99.90;;;;;;5052279;28;20017;-67
2021/10/28 19:07:31;;;;;;;37.30;23.08;;;10.40;99.90;;;;;;5052653;28;20021;-67
2021/10/28 19:09:57;;;;;;;37.25;24.58;;;10.40;99.90;;;;;;5053892;28;20084;-66
2021/10/28 19:12:23;;;;;;;35.67;22.75;;;10.40;99.90;;;;;;5053804;28;20017;-67
2021/10/28 19:14:49;;;;;;;40.95;24.92;;;10.30;99.90;;;;;;5052394;28;20025;-67
2021/10/28 19:17:15;;;;;;;36.53;23.67;;;10.20;99.90;;;;;;5053742;28;20120;-67
2021/10/28 19:19:41;;;;;;;40.67;24.98;;;10.20;99.90;;;;;;5053767;28;20482;-65
2021/10/28 19:22:08;;;;;;;35.72;23.50;;;10.10;99.90;;;;;;5053685;28;20039;-66
2021/10/28 19:24:34;;;;;;;37.95;25.02;;;10.10;99.90;;;;;;5053688;28;20474;-66
2021/10/28 19:27:00;;;;;;;47.42;25.00;;;10.10;99.90;;;;;;5052475;28;20025;-66
2021/10/28 19:29:26;;;;;;;40.92;24.83;;;10.00;99.90;;;;;;5053730;28;20071;-66
2021/10/28 19:31:56;;;;;;;41.22;25.02;;;9.90;99.90;;;;;;5053344;28;20025;-67
2021/10/28 19:34:23;;;;;;;44.53;26.75;;;9.90;99.90;;;;;;5053065;28;20364;-66
2021/10/28 19:36:57;;;;;;;43.17;26.55;;;9.80;99.90;;;;;;5053643;28;20017;-66
2021/10/28 19:39:32;;;;;;;40.90;25.55;;;9.80;99.90;;;;;;5047888;28;20486;-66
2021/10/28 19:42:11;;;;;;;43.42;26.38;;;9.80;99.90;;;;;;5053306;28;20033;-66
2021/10/28 19:47:22;;;;;;;41.75;25.35;;;9.70;99.90;;;;;;5052779;28;20037;-68
2021/10/28 19:49:48;;;;;;;39.38;25.02;;;9.60;99.90;;;;;;5052915;28;20067;-68